createdAt,value
2023-04-21T00:00:27.518Z,68104.38
2023-04-21T00:02:54.766Z,68100.44
2023-04-21T00:05:22.353Z,68097.78
2023-04-21T00:07:49.843Z,68090.84
2023-04-21T00:10:16.913Z,68085.75
2023-04-21T00:12:44.040Z,68086.13
2023-04-21T00:15:11.404Z,68094.22
2023-04-21T00:17:39.273Z,68078.56
2023-04-21T00:20:07.192Z,68078.00
2023-04-21T00:22:34.277Z,68082.72
2023-04-21T00:25:04.653Z,68077.44
2023-04-21T00:27:31.858Z,68080.47
2023-04-21T00:29:58.952Z,68078.19
2023-04-21T00:32:26.349Z,68075.38
2023-04-21T00:34:53.471Z,68062.72
2023-04-21T00:37:21.051Z,68067.25
2023-04-21T00:39:48.118Z,68058.03
2023-04-21T00:42:16.976Z,68055.75
2023-04-21T00:44:44.209Z,68056.13
2023-04-21T00:47:11.734Z,68072.34
2023-04-21T00:49:48.594Z,68059.34
2023-04-21T00:52:18.691Z,68051.41
2023-04-21T00:54:49.855Z,68044.63
2023-04-21T00:57:17.138Z,68029.34
2023-04-21T00:59:44.412Z,68011.25
2023-04-21T01:02:11.908Z,67998.63
2023-04-21T01:04:40.275Z,67988.44
2023-04-21T01:07:08.671Z,67988.09
2023-04-21T01:09:35.950Z,67989.38
2023-04-21T01:12:10.058Z,67973.38
2023-04-21T01:14:39.133Z,67988.81
2023-04-21T01:17:07.781Z,67967.72
2023-04-21T01:19:40.633Z,67968.84
2023-04-21T01:22:12.235Z,67972.81
2023-04-21T01:24:44.967Z,67964.13
2023-04-21T01:27:17.470Z,67958.47
2023-04-21T01:29:49.091Z,67918.63
2023-04-21T01:32:21.435Z,67932.69
2023-04-21T01:34:49.549Z,67932.28
2023-04-21T01:37:23.406Z,67929.28
2023-04-21T01:39:57.118Z,67921.38
2023-04-21T01:42:26.322Z,67919.50
2023-04-21T01:44:54.590Z,67924.56
2023-04-21T01:47:23.469Z,67915.72
2023-04-21T01:49:51.347Z,67905.56
2023-04-21T01:52:19.812Z,67894.25
2023-04-21T01:54:46.895Z,67895.56
2023-04-21T01:57:15.417Z,67884.09
2023-04-21T01:59:43.416Z,67876.19
2023-04-21T02:02:11.586Z,67872.78
2023-04-21T02:04:39.185Z,67868.63
2023-04-21T02:07:07.080Z,67871.09
2023-04-21T02:09:37.071Z,67871.47
2023-04-21T02:12:04.435Z,67875.03
2023-04-21T02:14:31.650Z,67874.84
2023-04-21T02:16:58.999Z,67874.84
2023-04-21T02:19:26.297Z,67876.53
2023-04-21T02:21:55.812Z,67875.03
2023-04-21T02:24:23.160Z,67879.38
2023-04-21T02:26:50.426Z,67875.41
2023-04-21T02:29:20.946Z,67863.75
2023-04-21T02:32:00.829Z,67862.63
2023-04-21T02:34:32.848Z,67858.66
2023-04-21T02:37:00.819Z,67855.28
2023-04-21T02:39:28.207Z,67855.28
2023-04-21T02:41:55.632Z,67843.59
2023-04-21T02:44:22.872Z,67845.06
2023-04-21T02:46:50.142Z,67843.59
2023-04-21T02:49:21.051Z,67842.25
2023-04-21T02:51:48.599Z,67848.47
2023-04-21T02:54:15.784Z,67850.19
2023-04-21T02:56:42.921Z,67851.31
2023-04-21T02:59:11.497Z,67857.91
2023-04-21T03:01:40.184Z,67857.53
2023-04-21T03:04:09.138Z,67860.34
2023-04-21T03:06:38.629Z,67856.03
2023-04-21T03:09:11.299Z,67859.94
2023-04-21T03:11:38.447Z,67856.19
2023-04-21T03:14:05.685Z,67847.56
2023-04-21T03:16:34.619Z,67835.69
2023-04-21T03:19:02.208Z,67842.25
2023-04-21T03:21:29.644Z,67843.75
2023-04-21T03:23:56.753Z,67848.28
2023-04-21T03:26:26.204Z,67841.13
2023-04-21T03:29:02.138Z,67816.38
2023-04-21T03:31:29.353Z,67837.16
2023-04-21T03:33:57.514Z,67831.50
2023-04-21T03:36:26.221Z,67832.84
2023-04-21T03:38:56.452Z,67825.88
2023-04-21T03:41:26.180Z,67830.19
2023-04-21T03:43:53.477Z,67820.03
2023-04-21T03:46:21.986Z,67828.16
2023-04-21T03:48:51.970Z,67814.22
2023-04-21T03:51:19.586Z,67817.03
2023-04-21T03:53:47.201Z,67815.72
2023-04-21T03:56:17.144Z,67820.25
2023-04-21T03:58:45.418Z,67828.16
2023-04-21T04:01:15.946Z,67835.47
2023-04-21T04:03:43.400Z,67826.44
2023-04-21T04:06:10.840Z,67831.50
2023-04-21T04:08:38.385Z,67816.28
2023-04-21T04:11:08.408Z,67810.06
2023-04-21T04:13:38.579Z,67814.38
2023-04-21T04:16:15.034Z,67816.28
2023-04-21T04:18:51.384Z,67823.97
2023-04-21T04:21:21.914Z,67826.25
2023-04-21T04:24:03.361Z,67817.97
2023-04-21T04:26:38.577Z,67831.31
2023-04-21T04:29:10.676Z,67826.44
2023-04-21T04:31:38.204Z,67836.41
2023-04-21T04:34:05.354Z,67838.09
2023-04-21T04:36:33.513Z,67846.78
2023-04-21T04:39:00.610Z,67857.72
2023-04-21T04:41:30.584Z,67885.41
2023-04-21T04:44:00.888Z,67891.41
2023-04-21T04:46:28.451Z,67887.09
2023-04-21T04:48:55.577Z,67901.78
2023-04-21T04:51:23.731Z,67919.13
2023-04-21T04:53:50.950Z,67940.97
2023-04-21T04:56:18.083Z,67950.03
2023-04-21T04:58:47.957Z,67975.06
2023-04-21T05:01:17.922Z,67993.38
2023-04-21T05:03:45.991Z,68003.16
2023-04-21T05:06:14.263Z,68030.69
2023-04-21T05:08:41.666Z,68032.16
2023-04-21T05:11:09.128Z,68022.75
2023-04-21T05:13:39.026Z,68033.69
2023-04-21T05:16:07.734Z,68042.19
2023-04-21T05:18:34.772Z,68061.41
2023-04-21T05:21:01.795Z,68065.75
2023-04-21T05:23:28.952Z,68065.75
2023-04-21T05:25:56.007Z,68065.94
2023-04-21T05:28:23.269Z,68064.25
2023-04-21T05:30:50.522Z,68092.50
2023-04-21T05:33:20.626Z,68084.22
2023-04-21T05:35:47.802Z,68148.19
2023-04-21T05:38:15.270Z,68243.91
2023-04-21T05:40:42.377Z,68343.66
2023-04-21T05:43:09.494Z,68414.91
2023-04-21T05:45:39.980Z,68476.56
2023-04-21T05:48:07.209Z,68481.47
2023-04-21T05:50:35.524Z,68481.28
2023-04-21T05:53:02.621Z,68493.38
2023-04-21T05:55:29.769Z,68492.81
2023-04-21T05:57:56.969Z,68473.53
2023-04-21T06:00:24.173Z,68448.53
2023-04-21T06:02:51.477Z,68451.00
2023-04-21T06:05:18.890Z,68446.66
2023-04-21T06:07:46.035Z,68439.09
2023-04-21T06:10:14.258Z,68439.09
2023-04-21T06:12:41.353Z,68458.97
2023-04-21T06:15:08.996Z,68409.03
2023-04-21T06:17:36.158Z,68396.00
2023-04-21T06:20:04.210Z,68356.69
2023-04-21T06:22:31.695Z,68369.94
2023-04-21T06:24:59.520Z,68365.59
2023-04-21T06:27:27.738Z,68357.81
2023-04-21T06:29:56.178Z,68376.16
2023-04-21T06:32:23.330Z,68398.81
2023-04-21T06:34:50.630Z,68403.00
2023-04-21T06:37:18.146Z,68431.94
2023-04-21T06:39:45.346Z,68442.88
2023-04-21T06:42:12.493Z,68456.88
2023-04-21T06:44:43.056Z,68461.97
2023-04-21T06:47:10.279Z,68465.22
2023-04-21T06:49:37.490Z,68467.09
2023-04-21T06:52:04.925Z,68516.66
2023-04-21T06:54:32.030Z,68499.06
2023-04-21T06:56:59.186Z,68517.06
2023-04-21T06:59:26.482Z,68537.09
2023-04-21T07:01:53.708Z,68537.47
2023-04-21T07:04:21.160Z,68562.47
2023-04-21T07:06:49.227Z,68533.31
2023-04-21T07:09:16.306Z,68526.88
2023-04-21T07:11:43.413Z,68528.19
2023-04-21T07:14:11.044Z,68577.03
2023-04-21T07:16:38.193Z,68670.00
2023-04-21T07:19:05.609Z,68710.16
2023-04-21T07:21:36.168Z,68726.06
2023-04-21T07:24:03.657Z,68725.31
2023-04-21T07:26:30.979Z,68733.09
2023-04-21T07:29:00.906Z,68712.56
2023-04-21T07:31:28.062Z,68675.88
2023-04-21T07:33:55.154Z,68666.22
2023-04-21T07:36:22.305Z,68666.03
2023-04-21T07:38:49.341Z,68685.75
2023-04-21T07:41:16.413Z,68644.03
2023-04-21T07:43:43.481Z,68609.22
2023-04-21T07:46:13.274Z,68596.31
2023-04-21T07:48:41.008Z,68596.72
2023-04-21T07:51:08.188Z,68616.97
2023-04-21T07:53:35.458Z,68634.94
2023-04-21T07:56:02.787Z,68654.09
2023-04-21T07:58:30.085Z,68679.28
2023-04-21T08:00:57.529Z,68695.56
2023-04-21T08:03:25.260Z,68726.84
2023-04-21T08:05:52.698Z,68726.19
2023-04-21T08:08:21.616Z,68772.88
2023-04-21T08:10:48.935Z,68810.06
2023-04-21T08:13:16.216Z,68854.78
2023-04-21T08:15:43.424Z,68888.94
2023-04-21T08:18:10.596Z,68944.75
2023-04-21T08:20:37.869Z,68932.19
2023-04-21T08:23:05.295Z,68939.50
2023-04-21T08:25:32.558Z,68974.72
2023-04-21T08:27:59.908Z,68992.16
2023-04-21T08:30:28.369Z,68959.41
2023-04-21T08:32:55.626Z,68977.16
2023-04-21T08:35:25.897Z,68954.59
2023-04-21T08:37:54.060Z,68970.22
2023-04-21T08:40:22.704Z,68997.09
2023-04-21T08:42:53.366Z,68992.72
2023-04-21T08:45:20.731Z,69012.34
2023-04-21T08:47:49.314Z,69067.03
2023-04-21T08:50:16.465Z,69111.44
2023-04-21T08:52:45.871Z,69079.72
2023-04-21T08:55:13.596Z,69082.16
2023-04-21T08:57:43.458Z,69107.97
2023-04-21T09:00:11.787Z,69123.00
2023-04-21T09:03:16.184Z,69180.75
2023-04-21T09:06:07.808Z,69234.78
2023-04-21T09:08:42.185Z,69255.28
2023-04-21T09:11:14.439Z,69257.91
2023-04-21T09:13:46.078Z,69278.88
2023-04-21T09:16:23.924Z,69208.34
2023-04-21T09:18:53.172Z,69225.81
2023-04-21T09:21:32.331Z,69245.03
2023-04-21T09:24:06.683Z,69232.31
2023-04-21T09:26:35.184Z,69287.66
2023-04-21T09:29:06.957Z,69343.00
2023-04-21T09:31:36.343Z,69380.47
2023-04-21T09:34:06.557Z,69372.69
2023-04-21T09:36:34.015Z,69403.31
2023-04-21T09:41:40.348Z,69419.84
2023-04-21T09:44:10.274Z,69350.41
2023-04-21T09:47:04.905Z,69339.19
2023-04-21T09:49:35.887Z,69302.47
2023-04-21T09:52:18.685Z,69365.03
2023-04-21T09:54:54.862Z,69400.06
2023-04-21T09:57:27.888Z,69456.97
2023-04-21T10:00:00.150Z,69416.81
2023-04-21T10:02:31.349Z,69468.41
2023-04-21T10:04:58.882Z,69459.50
2023-04-21T10:07:26.052Z,69437.72
2023-04-21T10:09:56.664Z,69463.81
2023-04-21T10:12:25.965Z,69454.13
2023-04-21T10:14:54.615Z,69482.13
2023-04-21T10:17:26.843Z,69448.06
2023-04-21T10:19:57.371Z,69453.78
2023-04-21T10:22:33.169Z,69443.25
2023-04-21T10:25:03.469Z,69479.66
2023-04-21T10:27:47.943Z,69534.34
2023-04-21T10:30:23.302Z,69324.91
2023-04-21T10:33:03.710Z,69304.94
2023-04-21T10:36:08.272Z,69356.72
2023-04-21T10:38:50.841Z,69394.38
2023-04-21T10:41:29.426Z,69462.09
2023-04-21T10:44:17.367Z,69406.91
2023-04-21T10:46:58.597Z,69500.78
2023-04-21T10:49:30.704Z,69482.69
2023-04-21T10:52:02.620Z,69461.53
2023-04-21T10:54:45.663Z,69447.09
2023-04-21T10:57:18.744Z,69475.09
2023-04-21T10:59:53.978Z,69520.22
2023-04-21T11:02:27.733Z,69541.50
2023-04-21T11:04:55.484Z,69523.66
2023-04-21T11:07:24.976Z,69554.66
2023-04-21T11:10:05.991Z,69580.00
2023-04-21T11:12:42.468Z,69629.16
2023-04-21T11:15:13.294Z,69566.28
2023-04-21T11:17:47.262Z,69604.00
2023-04-21T11:20:17.681Z,69496.56
2023-04-21T11:22:46.639Z,69419.69
2023-04-21T11:25:25.766Z,69320.53
2023-04-21T11:28:00.014Z,69288.19
2023-04-21T11:30:38.785Z,69255.28
2023-04-21T11:33:06.250Z,69338.44
2023-04-21T11:35:35.813Z,69404.84
2023-04-21T11:38:06.184Z,69344.47
2023-04-21T11:40:49.737Z,69341.06
2023-04-21T11:43:21.301Z,69320.13
2023-04-21T11:45:50.441Z,69263.28
2023-04-21T11:48:19.719Z,69210.47
2023-04-21T11:50:50.502Z,69254.31
2023-04-21T11:53:28.076Z,69331.94
2023-04-21T11:55:56.922Z,69434.13
2023-04-21T11:58:24.221Z,69494.66
2023-04-21T12:00:57.050Z,69505.94
2023-04-21T12:03:28.425Z,69491.41
2023-04-21T12:05:58.364Z,69532.38
2023-04-21T12:08:33.094Z,69562.69
2023-04-21T12:11:02.195Z,69607.09
2023-04-21T12:13:30.831Z,69646.69
2023-04-21T12:16:06.573Z,69553.13
2023-04-21T12:18:36.864Z,69535.22
2023-04-21T12:21:04.500Z,69588.00
2023-04-21T12:23:34.373Z,69570.69
2023-04-21T12:26:07.456Z,69537.13
2023-04-21T12:28:34.835Z,69477.56
2023-04-21T12:31:02.051Z,69451.81
2023-04-21T12:33:32.274Z,69475.66
2023-04-21T12:36:00.159Z,69475.66
2023-04-21T12:38:39.526Z,69497.94
2023-04-21T12:41:12.887Z,69520.78
2023-04-21T12:43:40.572Z,69492.97
2023-04-21T12:46:08.766Z,69469.16
2023-04-21T12:48:38.602Z,69459.44
2023-04-21T12:51:06.065Z,69531.22
2023-04-21T12:53:39.952Z,69546.09
2023-04-21T12:56:07.188Z,69491.44
2023-04-21T12:58:34.385Z,69544.94
2023-04-21T13:01:02.677Z,69571.09
2023-04-21T13:03:30.033Z,69587.25
2023-04-21T13:06:00.537Z,69587.81
2023-04-21T13:08:30.370Z,69583.66
2023-04-21T13:10:58.286Z,69598.28
2023-04-21T13:13:26.566Z,69569.53
2023-04-21T13:15:54.254Z,69634.69
2023-04-21T13:18:21.341Z,69671.31
2023-04-21T13:20:57.576Z,69645.97
2023-04-21T13:23:30.772Z,69692.16
2023-04-21T13:26:07.061Z,69707.91
2023-04-21T13:28:35.038Z,69677.03
2023-04-21T13:31:03.567Z,69656.59
2023-04-21T13:33:34.915Z,69570.13
2023-04-21T13:36:03.553Z,69571.84
2023-04-21T13:38:30.890Z,69469.75
2023-04-21T13:40:59.463Z,69447.25
2023-04-21T13:43:28.304Z,69422.72
2023-04-21T13:45:58.707Z,69388.88
2023-04-21T13:48:26.805Z,69384.47
2023-04-21T13:50:57.019Z,69343.00
2023-04-21T13:53:25.152Z,69284.06
2023-04-21T13:55:54.910Z,69255.47
2023-04-21T13:58:24.527Z,69251.88
2023-04-21T14:00:54.344Z,69245.59
2023-04-21T14:03:24.562Z,69261.56
2023-04-21T14:05:52.210Z,69234.94
2023-04-21T14:08:30.050Z,69257.56
2023-04-21T14:10:57.710Z,69282.28
2023-04-21T14:13:37.519Z,69277.72
2023-04-21T14:16:07.570Z,69321.66
2023-04-21T14:18:35.031Z,69300.78
2023-04-21T14:21:02.150Z,69250.91
2023-04-21T14:23:32.015Z,69257.75
2023-04-21T14:25:59.848Z,69253.56
2023-04-21T14:28:32.726Z,69247.88
2023-04-21T14:30:59.733Z,69237.63
2023-04-21T14:33:27.279Z,69259.69
2023-04-21T14:35:54.659Z,69243.72
2023-04-21T14:38:21.869Z,69228.66
2023-04-21T14:40:49.889Z,69208.72
2023-04-21T14:43:19.015Z,69194.44
2023-04-21T14:45:49.245Z,69172.78
2023-04-21T14:48:16.573Z,69141.41
2023-04-21T14:50:46.894Z,69137.66
2023-04-21T14:53:14.416Z,69170.16
2023-04-21T14:55:51.903Z,69170.34
2023-04-21T14:58:20.137Z,69177.75
2023-04-21T15:00:51.067Z,69203.56
2023-04-21T15:03:20.389Z,69173.75
2023-04-21T15:05:50.896Z,69157.38
2023-04-21T15:08:21.204Z,69140.09
2023-04-21T15:10:54.021Z,69134.25
2023-04-21T15:13:47.378Z,69108.19
2023-04-21T15:16:23.796Z,69137.28
2023-04-21T15:18:52.257Z,69184.75
2023-04-21T15:21:22.873Z,69210.25
2023-04-21T15:23:50.345Z,69205.50
2023-04-21T15:26:21.787Z,69196.56
2023-04-21T15:28:50.912Z,69197.31
2023-04-21T15:31:21.327Z,69164.25
2023-04-21T15:33:49.235Z,69164.66
2023-04-21T15:36:17.173Z,69181.38
2023-04-21T15:38:45.202Z,69199.25
2023-04-21T15:41:18.634Z,69199.59
2023-04-21T15:43:52.133Z,69200.00
2023-04-21T15:46:27.192Z,69197.13
2023-04-21T15:48:54.591Z,69191.25
2023-04-21T15:51:23.233Z,69180.03
2023-04-21T15:53:50.498Z,69174.91
2023-04-21T15:56:17.913Z,69134.59
2023-04-21T15:58:48.221Z,69111.59
2023-04-21T16:01:15.991Z,69123.59
2023-04-21T16:03:46.448Z,69139.16
2023-04-21T16:06:15.159Z,69144.53
2023-04-21T16:08:42.517Z,69159.31
2023-04-21T16:11:11.082Z,69156.44
2023-04-21T16:13:38.287Z,69121.13
2023-04-21T16:16:06.002Z,69111.44
2023-04-21T16:18:35.931Z,69099.09
2023-04-21T16:21:12.106Z,69106.66
2023-04-21T16:23:40.350Z,69123.00
2023-04-21T16:26:09.208Z,69113.31
2023-04-21T16:28:38.245Z,69123.19
2023-04-21T16:31:07.184Z,69121.28
2023-04-21T16:33:36.492Z,69093.94
2023-04-21T16:36:06.962Z,69070.03
2023-04-21T16:38:37.138Z,69053.50
2023-04-21T16:41:04.399Z,69025.56
2023-04-21T16:43:35.061Z,68995.78
2023-04-21T16:46:05.022Z,68993.09
2023-04-21T16:48:35.747Z,68985.72
2023-04-21T16:51:03.069Z,68992.38
2023-04-21T16:53:30.399Z,68991.22
2023-04-21T16:56:02.224Z,68990.28
2023-04-21T16:58:34.849Z,68987.59
2023-04-21T17:01:02.840Z,68987.44
2023-04-21T17:03:33.528Z,68988.00
2023-04-21T17:06:01.626Z,68982.09
2023-04-21T17:08:28.857Z,68983.81
2023-04-21T17:11:00.288Z,68967.88
2023-04-21T17:13:27.897Z,68970.00
2023-04-21T17:15:55.478Z,68965.06
2023-04-21T17:18:22.644Z,68957.09
2023-04-21T17:20:50.980Z,68942.44
2023-04-21T17:23:18.390Z,68942.44
2023-04-21T17:25:52.008Z,68932.59
2023-04-21T17:28:19.129Z,68923.66
2023-04-21T17:30:57.599Z,68919.84
2023-04-21T17:33:37.013Z,68912.28
2023-04-21T17:36:33.166Z,68896.16
2023-04-21T17:39:01.031Z,68887.78
2023-04-21T17:41:40.534Z,68871.09
2023-04-21T17:44:08.251Z,68864.28
2023-04-21T17:46:36.942Z,68849.50
2023-04-21T17:49:04.490Z,68842.28
2023-04-21T17:51:41.272Z,68842.84
2023-04-21T17:54:13.118Z,68833.75
2023-04-21T17:56:52.122Z,68826.19
2023-04-21T17:59:31.474Z,68809.31
2023-04-21T18:02:00.570Z,68819.53
2023-04-21T18:04:34.209Z,68815.38
2023-04-21T18:07:02.306Z,68808.16
2023-04-21T18:09:36.265Z,68803.81
2023-04-21T18:12:04.006Z,68793.16
2023-04-21T18:14:32.751Z,68785.97
2023-04-21T18:17:03.128Z,68782.94
2023-04-21T18:19:30.702Z,68778.75
2023-04-21T18:22:05.955Z,68776.69
2023-04-21T18:24:40.381Z,68764.38
2023-04-21T18:27:08.093Z,68763.59
2023-04-21T18:29:35.464Z,68762.28
2023-04-21T18:32:08.282Z,68751.09
2023-04-21T18:34:36.447Z,68738.03
2023-04-21T18:37:08.408Z,68734.22
2023-04-21T18:39:41.903Z,68739.53
2023-04-21T18:42:12.811Z,68733.84
2023-04-21T18:44:42.724Z,68729.09
2023-04-21T18:47:10.051Z,68731.41
2023-04-21T18:49:42.133Z,68724.56
2023-04-21T18:54:54.603Z,68723.06
2023-04-21T18:57:31.914Z,68717.56
2023-04-21T19:00:03.821Z,68715.28
2023-04-21T19:02:39.746Z,68733.09
2023-04-21T19:05:07.345Z,68712.63
2023-04-21T19:07:35.900Z,68712.47
2023-04-21T19:10:08.450Z,68730.84
2023-04-21T19:12:35.840Z,68720.59
2023-04-21T19:15:14.934Z,68724.94
2023-04-21T19:17:47.979Z,68715.84
2023-04-21T19:20:15.954Z,68721.16
2023-04-21T19:22:56.015Z,68713.03
2023-04-21T19:25:25.912Z,68713.03
2023-04-21T19:28:03.427Z,68710.91
2023-04-21T19:30:32.620Z,68721.53
2023-04-21T19:33:00.220Z,68730.06
2023-04-21T19:35:32.630Z,68717.16
2023-04-21T19:38:00.098Z,68715.28
2023-04-21T19:40:39.068Z,68709.03
2023-04-21T19:43:15.945Z,68710.34
2023-04-21T19:45:53.597Z,68712.81
2023-04-21T19:48:23.724Z,68685.91
2023-04-21T19:50:57.937Z,68676.09
2023-04-21T19:53:27.897Z,68669.09
2023-04-21T19:56:14.566Z,68643.88
2023-04-21T19:58:47.653Z,68634.78
2023-04-21T20:01:42.501Z,68625.69
2023-04-21T20:04:12.016Z,68622.66
2023-04-21T20:06:40.270Z,68616.41
2023-04-21T20:09:11.031Z,68615.25
2023-04-21T20:11:44.168Z,68603.94
2023-04-21T20:14:21.254Z,68588.00
2023-04-21T20:16:48.603Z,68560.00
2023-04-21T20:19:33.190Z,68552.81
2023-04-21T20:22:00.366Z,68558.50
2023-04-21T20:24:34.937Z,68565.31
2023-04-21T20:27:02.238Z,68555.84
2023-04-21T20:29:31.123Z,68539.56
2023-04-21T20:32:06.857Z,68530.69
2023-04-21T20:34:36.220Z,68530.09
2023-04-21T20:37:12.537Z,68535.41
2023-04-21T20:39:39.983Z,68534.09
2023-04-21T20:42:13.233Z,68539.75
2023-04-21T20:44:43.209Z,68544.31
2023-04-21T20:47:18.087Z,68523.28
2023-04-21T20:49:50.910Z,68511.94
2023-04-21T20:52:19.062Z,68509.28
2023-04-21T20:54:51.294Z,68515.16
2023-04-21T20:57:27.030Z,68513.09
2023-04-21T20:59:54.247Z,68505.47
2023-04-21T21:02:27.413Z,68508.91
2023-04-21T21:04:54.613Z,68522.53
2023-04-21T21:07:24.774Z,68513.25
2023-04-21T21:09:54.948Z,68501.72
2023-04-21T21:12:25.173Z,68505.88
2023-04-21T21:14:55.596Z,68505.31
2023-04-21T21:17:25.449Z,68515.16
2023-04-21T21:19:53.638Z,68494.88
2023-04-21T21:22:20.961Z,68488.84
2023-04-21T21:24:50.540Z,68485.63
2023-04-21T21:27:18.235Z,68472.00
2023-04-21T21:29:49.722Z,68467.28
2023-04-21T21:32:42.736Z,68473.53
2023-04-21T21:35:11.897Z,68474.84
2023-04-21T21:37:40.306Z,68479.94
2023-04-21T21:40:08.409Z,68452.34
2023-04-21T21:42:37.392Z,68430.78
2023-04-21T21:45:09.753Z,68412.25
2023-04-21T21:47:41.023Z,68403.75
2023-04-21T21:50:14.984Z,68413.41
2023-04-21T21:52:42.690Z,68402.78
2023-04-21T21:55:13.508Z,68395.81
2023-04-21T21:57:44.310Z,68385.81
2023-04-21T22:00:16.939Z,68385.22
2023-04-21T22:02:45.187Z,68390.50
2023-04-21T22:05:13.849Z,68390.16
2023-04-21T22:07:43.114Z,68390.50
2023-04-21T22:10:12.084Z,68378.81
2023-04-21T22:12:39.699Z,68389.78
2023-04-21T22:15:16.765Z,68370.28
2023-04-21T22:17:45.648Z,68356.13
2023-04-21T22:20:13.562Z,68356.69
2023-04-21T22:22:41.610Z,68363.69
2023-04-21T22:25:11.193Z,68369.34
2023-04-21T22:27:39.672Z,68369.16
2023-04-21T22:30:21.525Z,68359.31
2023-04-21T22:33:24.136Z,68347.63
2023-04-21T22:35:52.061Z,68362.34
2023-04-21T22:38:24.421Z,68368.03
2023-04-21T22:40:56.138Z,68361.03
2023-04-21T22:43:24.156Z,68364.44
2023-04-21T22:45:52.022Z,68364.06
2023-04-21T22:48:27.193Z,68368.03
2023-04-21T22:51:04.158Z,68377.28
2023-04-21T22:53:31.982Z,68386.94
2023-04-21T22:56:00.981Z,68388.06
2023-04-21T22:58:30.468Z,68381.06
2023-04-21T23:00:57.749Z,68387.47
2023-04-21T23:03:27.834Z,68364.25
2023-04-21T23:05:57.608Z,68356.88
2023-04-21T23:08:27.771Z,68344.78
2023-04-21T23:10:55.224Z,68361.41
2023-04-21T23:13:22.446Z,68362.56
2023-04-21T23:15:50.326Z,68360.09
2023-04-21T23:18:23.412Z,68350.44
2023-04-21T23:20:56.145Z,68350.63
2023-04-21T23:23:27.852Z,68353.47
2023-04-21T23:25:55.012Z,68343.28
2023-04-21T23:28:23.844Z,68350.06
2023-04-21T23:30:59.659Z,68345.72
2023-04-21T23:33:35.952Z,68344.41
2023-04-21T23:36:06.242Z,68347.25
2023-04-21T23:38:33.415Z,68350.06
2023-04-21T23:41:05.784Z,68348.75
2023-04-21T23:43:38.658Z,68355.34
2023-04-21T23:46:06.989Z,68356.69
2023-04-21T23:48:36.824Z,68351.00
2023-04-21T23:51:05.062Z,68354.97
2023-04-21T23:53:39.935Z,68346.47
2023-04-21T23:56:12.344Z,68349.50
2023-04-21T23:58:42.383Z,68334.19
